sensor_id;sensor_type;location;lat;lon;timestamp;temperature;humidity
37844;DHT22;63793;57.632;18.292;2024-02-23T00:00:39;5.50;99.90
37844;DHT22;63793;57.632;18.292;2024-02-23T00:03:06;5.50;99.90
37844;DHT22;63793;57.632;18.292;2024-02-23T00:05:34;5.50;99.90
37844;DHT22;63793;57.632;18.292;2024-02-23T00:08:01;5.50;99.90
37844;DHT22;63793;57.632;18.292;2024-02-23T00:10:28;5.50;99.90
37844;DHT22;63793;57.632;18.292;2024-02-23T00:12:55;5.50;99.90
37844;DHT22;63793;57.632;18.292;2024-02-23T00:15:22;5.50;99.90
37844;DHT22;63793;57.632;18.292;2024-02-23T00:17:51;5.40;99.90
37844;DHT22;63793;57.632;18.292;2024-02-23T00:20:18;5.50;99.90
37844;DHT22;63793;57.632;18.292;2024-02-23T00:22:45;5.50;99.90
37844;DHT22;63793;57.632;18.292;2024-02-23T00:25:12;5.50;99.90
37844;DHT22;63793;57.632;18.292;2024-02-23T00:27:39;5.40;99.90
37844;DHT22;63793;57.632;18.292;2024-02-23T00:30:08;5.40;99.90
37844;DHT22;63793;57.632;18.292;2024-02-23T00:32:35;5.40;99.90
37844;DHT22;63793;57.632;18.292;2024-02-23T00:35:03;5.50;99.90
37844;DHT22;63793;57.632;18.292;2024-02-23T00:37:30;5.50;99.90
37844;DHT22;63793;57.632;18.292;2024-02-23T00:40:05;5.40;99.90
37844;DHT22;63793;57.632;18.292;2024-02-23T00:42:32;5.40;99.90
37844;DHT22;63793;57.632;18.292;2024-02-23T00:44:59;5.40;99.90
37844;DHT22;63793;57.632;18.292;2024-02-23T00:47:27;5.40;99.90
37844;DHT22;63793;57.632;18.292;2024-02-23T00:49:54;5.50;99.90
37844;DHT22;63793;57.632;18.292;2024-02-23T00:52:21;5.50;99.90
37844;DHT22;63793;57.632;18.292;2024-02-23T00:54:48;5.40;99.90
37844;DHT22;63793;57.632;18.292;2024-02-23T00:57:15;5.50;99.90
37844;DHT22;63793;57.632;18.292;2024-02-23T00:59:42;5.50;99.90
37844;DHT22;63793;57.632;18.292;2024-02-23T01:02:09;5.50;99.90
37844;DHT22;63793;57.632;18.292;2024-02-23T01:04:36;5.40;99.90
37844;DHT22;63793;57.632;18.292;2024-02-23T01:07:03;5.50;99.90
37844;DHT22;63793;57.632;18.292;2024-02-23T01:09:30;5.50;99.90
37844;DHT22;63793;57.632;18.292;2024-02-23T01:11:57;5.50;99.90
37844;DHT22;63793;57.632;18.292;2024-02-23T01:14:24;5.50;99.90
37844;DHT22;63793;57.632;18.292;2024-02-23T01:16:51;5.50;99.90
37844;DHT22;63793;57.632;18.292;2024-02-23T01:19:18;5.50;99.90
37844;DHT22;63793;57.632;18.292;2024-02-23T01:21:45;5.50;99.90
37844;DHT22;63793;57.632;18.292;2024-02-23T01:24:12;5.50;99.90
37844;DHT22;63793;57.632;18.292;2024-02-23T01:26:39;5.50;99.90
37844;DHT22;63793;57.632;18.292;2024-02-23T01:29:09;5.40;99.90
37844;DHT22;63793;57.632;18.292;2024-02-23T01:31:36;5.40;99.90
37844;DHT22;63793;57.632;18.292;2024-02-23T01:34:03;5.50;99.90
37844;DHT22;63793;57.632;18.292;2024-02-23T01:36:30;5.40;99.90
37844;DHT22;63793;57.632;18.292;2024-02-23T01:38:56;5.50;99.90
37844;DHT22;63793;57.632;18.292;2024-02-23T01:41:24;5.50;99.90
37844;DHT22;63793;57.632;18.292;2024-02-23T01:43:50;5.50;99.90
37844;DHT22;63793;57.632;18.292;2024-02-23T01:46:18;5.50;99.90
37844;DHT22;63793;57.632;18.292;2024-02-23T01:48:45;5.40;99.90
37844;DHT22;63793;57.632;18.292;2024-02-23T01:51:13;5.50;99.90
37844;DHT22;63793;57.632;18.292;2024-02-23T01:53:40;5.50;99.90
37844;DHT22;63793;57.632;18.292;2024-02-23T01:56:08;5.40;99.90
37844;DHT22;63793;57.632;18.292;2024-02-23T01:58:39;5.40;99.90
37844;DHT22;63793;57.632;18.292;2024-02-23T02:01:07;5.40;99.90
37844;DHT22;63793;57.632;18.292;2024-02-23T02:03:34;5.40;99.90
37844;DHT22;63793;57.632;18.292;2024-02-23T02:06:02;5.40;99.90
37844;DHT22;63793;57.632;18.292;2024-02-23T02:08:29;5.40;99.90
37844;DHT22;63793;57.632;18.292;2024-02-23T02:10:56;5.40;99.90
37844;DHT22;63793;57.632;18.292;2024-02-23T02:13:23;5.40;99.90
37844;DHT22;63793;57.632;18.292;2024-02-23T02:15:50;5.40;99.90
37844;DHT22;63793;57.632;18.292;2024-02-23T02:18:17;5.40;99.90
37844;DHT22;63793;57.632;18.292;2024-02-23T02:20:51;5.40;99.90
37844;DHT22;63793;57.632;18.292;2024-02-23T02:23:20;5.40;99.90
37844;DHT22;63793;57.632;18.292;2024-02-23T02:25:54;5.40;99.90
37844;DHT22;63793;57.632;18.292;2024-02-23T02:28:22;5.40;99.90
37844;DHT22;63793;57.632;18.292;2024-02-23T02:30:49;5.40;99.90
37844;DHT22;63793;57.632;18.292;2024-02-23T02:33:16;5.40;99.90
37844;DHT22;63793;57.632;18.292;2024-02-23T02:35:43;5.40;99.90
37844;DHT22;63793;57.632;18.292;2024-02-23T02:38:11;5.40;99.90
37844;DHT22;63793;57.632;18.292;2024-02-23T02:40:38;5.40;99.90
37844;DHT22;63793;57.632;18.292;2024-02-23T02:43:05;5.40;99.90
37844;DHT22;63793;57.632;18.292;2024-02-23T02:45:33;5.40;99.90
37844;DHT22;63793;57.632;18.292;2024-02-23T02:48:00;5.40;99.90
37844;DHT22;63793;57.632;18.292;2024-02-23T02:50:31;5.40;99.90
37844;DHT22;63793;57.632;18.292;2024-02-23T02:52:58;5.40;99.90
37844;DHT22;63793;57.632;18.292;2024-02-23T02:55:25;5.40;99.90
37844;DHT22;63793;57.632;18.292;2024-02-23T02:57:52;5.40;99.90
37844;DHT22;63793;57.632;18.292;2024-02-23T03:00:19;5.40;99.90
37844;DHT22;63793;57.632;18.292;2024-02-23T03:02:46;5.40;99.90
37844;DHT22;63793;57.632;18.292;2024-02-23T03:05:13;5.40;99.90
37844;DHT22;63793;57.632;18.292;2024-02-23T03:07:40;5.40;99.90
37844;DHT22;63793;57.632;18.292;2024-02-23T03:10:07;5.40;99.90
37844;DHT22;63793;57.632;18.292;2024-02-23T03:12:34;5.40;99.90
37844;DHT22;63793;57.632;18.292;2024-02-23T03:15:01;5.40;99.90
37844;DHT22;63793;57.632;18.292;2024-02-23T03:17:29;5.40;99.90
37844;DHT22;63793;57.632;18.292;2024-02-23T03:19:57;5.40;99.90
37844;DHT22;63793;57.632;18.292;2024-02-23T03:22:24;5.40;99.90
37844;DHT22;63793;57.632;18.292;2024-02-23T03:24:51;5.40;99.90
37844;DHT22;63793;57.632;18.292;2024-02-23T03:27:19;5.40;99.90
37844;DHT22;63793;57.632;18.292;2024-02-23T03:29:46;5.40;99.90
37844;DHT22;63793;57.632;18.292;2024-02-23T03:32:13;5.40;99.90
37844;DHT22;63793;57.632;18.292;2024-02-23T03:34:40;5.40;99.90
37844;DHT22;63793;57.632;18.292;2024-02-23T03:37:07;5.40;99.90
37844;DHT22;63793;57.632;18.292;2024-02-23T03:39:34;5.40;99.90
37844;DHT22;63793;57.632;18.292;2024-02-23T03:42:03;5.40;99.90
37844;DHT22;63793;57.632;18.292;2024-02-23T03:44:30;5.40;99.90
37844;DHT22;63793;57.632;18.292;2024-02-23T03:46:58;5.50;99.90
37844;DHT22;63793;57.632;18.292;2024-02-23T03:49:25;5.50;99.90
37844;DHT22;63793;57.632;18.292;2024-02-23T03:51:52;5.40;99.90
37844;DHT22;63793;57.632;18.292;2024-02-23T03:54:19;5.50;99.90
37844;DHT22;63793;57.632;18.292;2024-02-23T03:56:46;5.50;99.90
37844;DHT22;63793;57.632;18.292;2024-02-23T03:59:13;5.50;99.90
37844;DHT22;63793;57.632;18.292;2024-02-23T04:01:41;5.50;99.90
37844;DHT22;63793;57.632;18.292;2024-02-23T04:04:08;5.50;99.90
37844;DHT22;63793;57.632;18.292;2024-02-23T04:06:35;5.50;99.90
37844;DHT22;63793;57.632;18.292;2024-02-23T04:09:02;5.50;99.90
37844;DHT22;63793;57.632;18.292;2024-02-23T04:11:32;5.50;99.90
37844;DHT22;63793;57.632;18.292;2024-02-23T04:14:00;5.50;99.90
37844;DHT22;63793;57.632;18.292;2024-02-23T04:16:27;5.50;99.90
37844;DHT22;63793;57.632;18.292;2024-02-23T04:18:54;5.50;99.90
37844;DHT22;63793;57.632;18.292;2024-02-23T04:21:23;5.50;99.90
37844;DHT22;63793;57.632;18.292;2024-02-23T04:23:50;5.60;99.90
37844;DHT22;63793;57.632;18.292;2024-02-23T04:26:17;5.60;99.90
37844;DHT22;63793;57.632;18.292;2024-02-23T04:28:44;5.50;99.90
37844;DHT22;63793;57.632;18.292;2024-02-23T04:31:11;5.60;99.90
37844;DHT22;63793;57.632;18.292;2024-02-23T04:33:38;5.60;99.90
37844;DHT22;63793;57.632;18.292;2024-02-23T04:36:05;5.60;99.90
37844;DHT22;63793;57.632;18.292;2024-02-23T04:38:33;5.60;99.90
37844;DHT22;63793;57.632;18.292;2024-02-23T04:41:04;5.60;99.90
37844;DHT22;63793;57.632;18.292;2024-02-23T04:43:32;5.60;99.90
37844;DHT22;63793;57.632;18.292;2024-02-23T04:45:59;5.60;99.90
37844;DHT22;63793;57.632;18.292;2024-02-23T04:48:26;5.60;99.90
37844;DHT22;63793;57.632;18.292;2024-02-23T04:50:53;5.60;99.90
37844;DHT22;63793;57.632;18.292;2024-02-23T04:53:20;5.70;99.90
37844;DHT22;63793;57.632;18.292;2024-02-23T04:55:47;5.60;99.90
37844;DHT22;63793;57.632;18.292;2024-02-23T04:58:14;5.60;99.90
37844;DHT22;63793;57.632;18.292;2024-02-23T05:00:41;5.70;99.90
37844;DHT22;63793;57.632;18.292;2024-02-23T05:03:08;5.70;99.90
37844;DHT22;63793;57.632;18.292;2024-02-23T05:05:38;5.70;99.90
37844;DHT22;63793;57.632;18.292;2024-02-23T05:08:06;5.70;99.90
37844;DHT22;63793;57.632;18.292;2024-02-23T05:10:33;5.70;99.90
37844;DHT22;63793;57.632;18.292;2024-02-23T05:13:00;5.70;99.90
37844;DHT22;63793;57.632;18.292;2024-02-23T05:15:27;5.70;99.90
37844;DHT22;63793;57.632;18.292;2024-02-23T05:17:54;5.70;99.90
37844;DHT22;63793;57.632;18.292;2024-02-23T05:20:21;5.70;99.90
37844;DHT22;63793;57.632;18.292;2024-02-23T05:22:48;5.80;99.90
37844;DHT22;63793;57.632;18.292;2024-02-23T05:25:16;5.70;99.90
37844;DHT22;63793;57.632;18.292;2024-02-23T05:27:42;5.70;99.90
37844;DHT22;63793;57.632;18.292;2024-02-23T05:30:10;5.70;99.90
37844;DHT22;63793;57.632;18.292;2024-02-23T05:32:37;5.70;99.90
37844;DHT22;63793;57.632;18.292;2024-02-23T05:35:05;5.70;99.90
37844;DHT22;63793;57.632;18.292;2024-02-23T05:37:32;5.70;99.90
37844;DHT22;63793;57.632;18.292;2024-02-23T05:39:59;5.70;99.90
37844;DHT22;63793;57.632;18.292;2024-02-23T05:42:26;5.70;99.90
37844;DHT22;63793;57.632;18.292;2024-02-23T05:44:53;5.70;99.90
37844;DHT22;63793;57.632;18.292;2024-02-23T05:47:20;5.70;99.90
37844;DHT22;63793;57.632;18.292;2024-02-23T05:49:49;5.70;99.90
37844;DHT22;63793;57.632;18.292;2024-02-23T05:52:16;5.70;99.90
37844;DHT22;63793;57.632;18.292;2024-02-23T05:54:43;5.70;99.90
37844;DHT22;63793;57.632;18.292;2024-02-23T05:57:10;5.70;99.90
37844;DHT22;63793;57.632;18.292;2024-02-23T05:59:36;5.70;99.90
37844;DHT22;63793;57.632;18.292;2024-02-23T06:02:04;5.70;99.90
37844;DHT22;63793;57.632;18.292;2024-02-23T06:04:31;5.70;99.90
37844;DHT22;63793;57.632;18.292;2024-02-23T06:06:57;5.70;99.90
37844;DHT22;63793;57.632;18.292;2024-02-23T06:09:25;5.70;99.90
37844;DHT22;63793;57.632;18.292;2024-02-23T06:11:52;5.70;99.90
37844;DHT22;63793;57.632;18.292;2024-02-23T06:14:19;5.70;99.90
37844;DHT22;63793;57.632;18.292;2024-02-23T06:16:46;5.80;99.90
37844;DHT22;63793;57.632;18.292;2024-02-23T06:19:13;5.80;99.90
37844;DHT22;63793;57.632;18.292;2024-02-23T06:21:40;5.70;99.90
37844;DHT22;63793;57.632;18.292;2024-02-23T06:24:08;5.80;99.90
37844;DHT22;63793;57.632;18.292;2024-02-23T06:26:35;5.80;99.90
37844;DHT22;63793;57.632;18.292;2024-02-23T06:29:02;5.80;99.90
37844;DHT22;63793;57.632;18.292;2024-02-23T06:31:30;5.80;99.90
37844;DHT22;63793;57.632;18.292;2024-02-23T06:33:57;5.80;99.90
37844;DHT22;63793;57.632;18.292;2024-02-23T06:36:24;5.80;99.90
37844;DHT22;63793;57.632;18.292;2024-02-23T06:38:51;5.80;99.90
37844;DHT22;63793;57.632;18.292;2024-02-23T06:41:18;5.80;99.90
37844;DHT22;63793;57.632;18.292;2024-02-23T06:43:45;5.80;99.90
37844;DHT22;63793;57.632;18.292;2024-02-23T06:46:12;5.80;99.90
37844;DHT22;63793;57.632;18.292;2024-02-23T06:48:39;5.90;99.90
37844;DHT22;63793;57.632;18.292;2024-02-23T06:51:07;5.90;99.90
37844;DHT22;63793;57.632;18.292;2024-02-23T06:53:37;5.90;99.90
37844;DHT22;63793;57.632;18.292;2024-02-23T06:56:05;6.00;99.90
37844;DHT22;63793;57.632;18.292;2024-02-23T06:58:32;6.00;99.90
37844;DHT22;63793;57.632;18.292;2024-02-23T07:00:59;6.10;99.90
37844;DHT22;63793;57.632;18.292;2024-02-23T07:03:27;6.20;99.90
37844;DHT22;63793;57.632;18.292;2024-02-23T07:05:54;6.30;99.90
37844;DHT22;63793;57.632;18.292;2024-02-23T07:08:22;6.40;99.90
37844;DHT22;63793;57.632;18.292;2024-02-23T07:10:49;6.50;99.90
37844;DHT22;63793;57.632;18.292;2024-02-23T07:13:16;6.50;99.90
37844;DHT22;63793;57.632;18.292;2024-02-23T07:15:44;6.60;99.90
37844;DHT22;63793;57.632;18.292;2024-02-23T07:18:11;6.70;99.90
37844;DHT22;63793;57.632;18.292;2024-02-23T07:20:38;6.70;99.90
37844;DHT22;63793;57.632;18.292;2024-02-23T07:23:05;6.70;99.90
37844;DHT22;63793;57.632;18.292;2024-02-23T07:25:33;6.80;99.90
37844;DHT22;63793;57.632;18.292;2024-02-23T07:28:00;6.80;99.90
37844;DHT22;63793;57.632;18.292;2024-02-23T07:30:27;6.90;99.90
37844;DHT22;63793;57.632;18.292;2024-02-23T07:32:54;6.90;99.90
37844;DHT22;63793;57.632;18.292;2024-02-23T07:35:21;6.90;99.90
37844;DHT22;63793;57.632;18.292;2024-02-23T07:37:48;6.90;99.90
37844;DHT22;63793;57.632;18.292;2024-02-23T07:40:15;6.90;99.90
37844;DHT22;63793;57.632;18.292;2024-02-23T07:42:46;6.90;99.90
37844;DHT22;63793;57.632;18.292;2024-02-23T07:45:13;6.90;99.90
37844;DHT22;63793;57.632;18.292;2024-02-23T07:47:40;6.90;99.90
37844;DHT22;63793;57.632;18.292;2024-02-23T07:50:08;6.90;99.90
37844;DHT22;63793;57.632;18.292;2024-02-23T07:52:35;6.90;99.90
37844;DHT22;63793;57.632;18.292;2024-02-23T07:55:02;7.00;99.90
37844;DHT22;63793;57.632;18.292;2024-02-23T07:57:32;7.00;99.90
37844;DHT22;63793;57.632;18.292;2024-02-23T07:59:59;7.00;99.90
37844;DHT22;63793;57.632;18.292;2024-02-23T08:02:38;7.00;99.90
37844;DHT22;63793;57.632;18.292;2024-02-23T08:05:06;7.00;99.90
37844;DHT22;63793;57.632;18.292;2024-02-23T08:07:33;7.10;99.90
37844;DHT22;63793;57.632;18.292;2024-02-23T08:10:00;7.00;99.90
37844;DHT22;63793;57.632;18.292;2024-02-23T08:12:29;7.00;99.90
37844;DHT22;63793;57.632;18.292;2024-02-23T08:14:56;7.00;99.90
37844;DHT22;63793;57.632;18.292;2024-02-23T08:17:23;7.00;99.90
37844;DHT22;63793;57.632;18.292;2024-02-23T08:19:52;6.90;99.90
37844;DHT22;63793;57.632;18.292;2024-02-23T08:22:19;6.80;99.90
37844;DHT22;63793;57.632;18.292;2024-02-23T08:24:46;6.80;99.90
37844;DHT22;63793;57.632;18.292;2024-02-23T08:27:13;6.80;99.90
37844;DHT22;63793;57.632;18.292;2024-02-23T08:29:40;6.80;99.90
37844;DHT22;63793;57.632;18.292;2024-02-23T08:32:08;6.70;99.90
37844;DHT22;63793;57.632;18.292;2024-02-23T08:34:35;6.70;99.90
37844;DHT22;63793;57.632;18.292;2024-02-23T08:37:03;6.70;99.90
37844;DHT22;63793;57.632;18.292;2024-02-23T08:39:29;6.60;99.90
37844;DHT22;63793;57.632;18.292;2024-02-23T08:41:56;6.60;99.90
37844;DHT22;63793;57.632;18.292;2024-02-23T08:44:24;6.60;99.90
37844;DHT22;63793;57.632;18.292;2024-02-23T08:46:51;6.50;99.90
37844;DHT22;63793;57.632;18.292;2024-02-23T08:49:18;6.50;99.90
37844;DHT22;63793;57.632;18.292;2024-02-23T08:51:45;6.40;99.90
37844;DHT22;63793;57.632;18.292;2024-02-23T08:54:12;6.40;99.90
37844;DHT22;63793;57.632;18.292;2024-02-23T08:56:39;6.40;99.90
37844;DHT22;63793;57.632;18.292;2024-02-23T08:59:09;6.40;99.90
37844;DHT22;63793;57.632;18.292;2024-02-23T09:01:36;6.30;99.90
37844;DHT22;63793;57.632;18.292;2024-02-23T09:04:03;6.30;99.90
37844;DHT22;63793;57.632;18.292;2024-02-23T09:06:30;6.30;99.90
37844;DHT22;63793;57.632;18.292;2024-02-23T09:09:05;6.40;99.90
37844;DHT22;63793;57.632;18.292;2024-02-23T09:11:32;6.30;99.90
37844;DHT22;63793;57.632;18.292;2024-02-23T09:13:59;6.30;99.90
37844;DHT22;63793;57.632;18.292;2024-02-23T09:16:26;6.30;99.90
37844;DHT22;63793;57.632;18.292;2024-02-23T09:18:53;6.30;99.90
37844;DHT22;63793;57.632;18.292;2024-02-23T09:21:20;6.30;99.90
37844;DHT22;63793;57.632;18.292;2024-02-23T09:23:47;6.30;99.90
37844;DHT22;63793;57.632;18.292;2024-02-23T09:26:14;6.30;99.90
37844;DHT22;63793;57.632;18.292;2024-02-23T09:28:42;6.40;99.90
37844;DHT22;63793;57.632;18.292;2024-02-23T09:31:09;6.40;99.90
37844;DHT22;63793;57.632;18.292;2024-02-23T09:33:36;6.40;99.90
37844;DHT22;63793;57.632;18.292;2024-02-23T09:36:03;6.40;99.90
37844;DHT22;63793;57.632;18.292;2024-02-23T09:38:30;6.40;99.90
37844;DHT22;63793;57.632;18.292;2024-02-23T09:40:59;6.40;99.90
37844;DHT22;63793;57.632;18.292;2024-02-23T09:43:29;6.40;99.90
37844;DHT22;63793;57.632;18.292;2024-02-23T09:45:59;6.50;99.90
37844;DHT22;63793;57.632;18.292;2024-02-23T09:48:26;6.50;99.90
37844;DHT22;63793;57.632;18.292;2024-02-23T09:50:55;6.50;99.90
37844;DHT22;63793;57.632;18.292;2024-02-23T09:53:24;6.50;99.90
37844;DHT22;63793;57.632;18.292;2024-02-23T09:55:51;6.50;99.90
37844;DHT22;63793;57.632;18.292;2024-02-23T09:58:20;6.60;99.90
37844;DHT22;63793;57.632;18.292;2024-02-23T10:00:48;6.60;99.90
37844;DHT22;63793;57.632;18.292;2024-02-23T10:03:15;6.60;99.90
37844;DHT22;63793;57.632;18.292;2024-02-23T10:05:43;6.70;99.90
37844;DHT22;63793;57.632;18.292;2024-02-23T10:08:11;6.70;99.90
37844;DHT22;63793;57.632;18.292;2024-02-23T10:10:39;6.70;99.90
37844;DHT22;63793;57.632;18.292;2024-02-23T10:13:06;6.70;99.90
37844;DHT22;63793;57.632;18.292;2024-02-23T10:15:34;6.70;99.90
37844;DHT22;63793;57.632;18.292;2024-02-23T10:18:02;6.70;99.90
37844;DHT22;63793;57.632;18.292;2024-02-23T10:20:29;6.70;99.90
37844;DHT22;63793;57.632;18.292;2024-02-23T10:22:57;6.60;99.90
37844;DHT22;63793;57.632;18.292;2024-02-23T10:25:24;6.60;99.90
37844;DHT22;63793;57.632;18.292;2024-02-23T10:27:50;6.60;99.90
37844;DHT22;63793;57.632;18.292;2024-02-23T10:30:17;6.50;99.90
37844;DHT22;63793;57.632;18.292;2024-02-23T10:32:45;6.60;99.90
37844;DHT22;63793;57.632;18.292;2024-02-23T10:35:16;6.60;99.90
37844;DHT22;63793;57.632;18.292;2024-02-23T10:37:44;6.60;99.90
37844;DHT22;63793;57.632;18.292;2024-02-23T10:40:12;6.60;99.90
37844;DHT22;63793;57.632;18.292;2024-02-23T10:42:41;6.60;99.90
37844;DHT22;63793;57.632;18.292;2024-02-23T10:45:16;6.60;99.90
37844;DHT22;63793;57.632;18.292;2024-02-23T10:47:44;6.60;99.90
37844;DHT22;63793;57.632;18.292;2024-02-23T10:50:12;6.60;99.90
37844;DHT22;63793;57.632;18.292;2024-02-23T10:52:43;6.50;99.90
37844;DHT22;63793;57.632;18.292;2024-02-23T10:55:10;6.50;99.90
37844;DHT22;63793;57.632;18.292;2024-02-23T10:57:38;6.50;99.90
37844;DHT22;63793;57.632;18.292;2024-02-23T11:00:07;6.40;99.90
37844;DHT22;63793;57.632;18.292;2024-02-23T11:02:43;6.50;99.90
37844;DHT22;63793;57.632;18.292;2024-02-23T11:05:12;6.40;99.90
37844;DHT22;63793;57.632;18.292;2024-02-23T11:07:41;6.40;99.90
37844;DHT22;63793;57.632;18.292;2024-02-23T11:10:08;6.30;99.90
37844;DHT22;63793;57.632;18.292;2024-02-23T11:12:38;6.30;99.90
37844;DHT22;63793;57.632;18.292;2024-02-23T11:15:05;6.30;99.90
37844;DHT22;63793;57.632;18.292;2024-02-23T11:17:34;6.20;99.90
37844;DHT22;63793;57.632;18.292;2024-02-23T11:20:05;6.20;99.90
37844;DHT22;63793;57.632;18.292;2024-02-23T11:22:35;6.30;99.90
37844;DHT22;63793;57.632;18.292;2024-02-23T11:25:07;6.30;99.90
37844;DHT22;63793;57.632;18.292;2024-02-23T11:27:38;6.30;99.90
37844;DHT22;63793;57.632;18.292;2024-02-23T11:30:08;6.30;99.90
37844;DHT22;63793;57.632;18.292;2024-02-23T11:32:41;6.30;99.90
37844;DHT22;63793;57.632;18.292;2024-02-23T11:35:16;6.30;99.90
37844;DHT22;63793;57.632;18.292;2024-02-23T11:37:51;6.40;99.90
37844;DHT22;63793;57.632;18.292;2024-02-23T11:40:23;6.40;99.90
37844;DHT22;63793;57.632;18.292;2024-02-23T11:42:51;6.40;99.90
37844;DHT22;63793;57.632;18.292;2024-02-23T11:45:18;6.40;99.90
37844;DHT22;63793;57.632;18.292;2024-02-23T11:47:45;6.50;99.90
37844;DHT22;63793;57.632;18.292;2024-02-23T11:50:13;6.60;99.90
37844;DHT22;63793;57.632;18.292;2024-02-23T11:52:42;6.60;99.90
37844;DHT22;63793;57.632;18.292;2024-02-23T11:55:09;6.70;99.90
37844;DHT22;63793;57.632;18.292;2024-02-23T11:57:36;6.70;99.90
37844;DHT22;63793;57.632;18.292;2024-02-23T12:00:14;6.70;99.90
37844;DHT22;63793;57.632;18.292;2024-02-23T12:02:46;6.70;99.90
37844;DHT22;63793;57.632;18.292;2024-02-23T12:05:17;6.80;99.90
37844;DHT22;63793;57.632;18.292;2024-02-23T12:07:44;6.70;99.90
37844;DHT22;63793;57.632;18.292;2024-02-23T12:10:14;6.70;99.90
37844;DHT22;63793;57.632;18.292;2024-02-23T12:12:41;6.80;99.90
37844;DHT22;63793;57.632;18.292;2024-02-23T12:15:08;6.80;99.90
37844;DHT22;63793;57.632;18.292;2024-02-23T12:17:36;6.80;99.90
37844;DHT22;63793;57.632;18.292;2024-02-23T12:20:04;6.80;99.90
37844;DHT22;63793;57.632;18.292;2024-02-23T12:22:34;6.70;99.90
37844;DHT22;63793;57.632;18.292;2024-02-23T12:25:01;6.50;99.90
37844;DHT22;63793;57.632;18.292;2024-02-23T12:27:29;6.40;99.90
37844;DHT22;63793;57.632;18.292;2024-02-23T12:29:56;6.50;99.90
37844;DHT22;63793;57.632;18.292;2024-02-23T12:32:23;6.50;99.90
37844;DHT22;63793;57.632;18.292;2024-02-23T12:34:52;6.50;99.90
37844;DHT22;63793;57.632;18.292;2024-02-23T12:37:19;6.40;99.90
37844;DHT22;63793;57.632;18.292;2024-02-23T12:39:48;6.30;99.90
37844;DHT22;63793;57.632;18.292;2024-02-23T12:42:15;6.20;99.90
37844;DHT22;63793;57.632;18.292;2024-02-23T12:44:43;6.10;99.90
37844;DHT22;63793;57.632;18.292;2024-02-23T12:47:10;6.20;99.90
37844;DHT22;63793;57.632;18.292;2024-02-23T12:49:37;6.10;99.90
37844;DHT22;63793;57.632;18.292;2024-02-23T12:52:07;6.10;99.90
37844;DHT22;63793;57.632;18.292;2024-02-23T12:54:33;6.10;99.90
37844;DHT22;63793;57.632;18.292;2024-02-23T12:57:01;6.00;99.90
37844;DHT22;63793;57.632;18.292;2024-02-23T12:59:28;5.90;99.90
37844;DHT22;63793;57.632;18.292;2024-02-23T13:01:55;5.90;99.90
37844;DHT22;63793;57.632;18.292;2024-02-23T13:04:22;5.90;99.90
37844;DHT22;63793;57.632;18.292;2024-02-23T13:06:49;5.90;99.90
37844;DHT22;63793;57.632;18.292;2024-02-23T13:09:16;5.80;99.90
37844;DHT22;63793;57.632;18.292;2024-02-23T13:11:43;5.80;99.90
37844;DHT22;63793;57.632;18.292;2024-02-23T13:14:10;5.70;99.90
37844;DHT22;63793;57.632;18.292;2024-02-23T13:16:37;5.70;99.90
37844;DHT22;63793;57.632;18.292;2024-02-23T13:19:04;5.70;99.90
37844;DHT22;63793;57.632;18.292;2024-02-23T13:21:31;5.80;99.90
37844;DHT22;63793;57.632;18.292;2024-02-23T13:23:59;5.90;99.90
37844;DHT22;63793;57.632;18.292;2024-02-23T13:26:26;6.00;99.90
37844;DHT22;63793;57.632;18.292;2024-02-23T13:28:53;6.20;99.90
37844;DHT22;63793;57.632;18.292;2024-02-23T13:31:20;6.20;99.90
37844;DHT22;63793;57.632;18.292;2024-02-23T13:33:47;6.30;99.90
37844;DHT22;63793;57.632;18.292;2024-02-23T13:36:14;6.30;99.90
37844;DHT22;63793;57.632;18.292;2024-02-23T13:38:41;6.30;99.90
37844;DHT22;63793;57.632;18.292;2024-02-23T13:41:09;6.30;99.90
37844;DHT22;63793;57.632;18.292;2024-02-23T13:43:36;6.30;99.90
37844;DHT22;63793;57.632;18.292;2024-02-23T13:46:03;6.40;99.90
37844;DHT22;63793;57.632;18.292;2024-02-23T13:48:31;6.40;99.90
37844;DHT22;63793;57.632;18.292;2024-02-23T13:50:58;6.50;99.90
37844;DHT22;63793;57.632;18.292;2024-02-23T13:53:30;6.50;99.90
37844;DHT22;63793;57.632;18.292;2024-02-23T13:55:58;6.50;99.90
37844;DHT22;63793;57.632;18.292;2024-02-23T13:58:27;6.40;99.90
37844;DHT22;63793;57.632;18.292;2024-02-23T14:00:55;6.40;99.90
37844;DHT22;63793;57.632;18.292;2024-02-23T14:03:22;6.30;99.90
37844;DHT22;63793;57.632;18.292;2024-02-23T14:05:50;6.40;99.90
37844;DHT22;63793;57.632;18.292;2024-02-23T14:08:17;6.40;99.90
37844;DHT22;63793;57.632;18.292;2024-02-23T14:10:44;6.40;99.90
37844;DHT22;63793;57.632;18.292;2024-02-23T14:13:12;6.40;99.90
37844;DHT22;63793;57.632;18.292;2024-02-23T14:15:39;6.30;99.90
37844;DHT22;63793;57.632;18.292;2024-02-23T14:18:06;6.30;99.90
37844;DHT22;63793;57.632;18.292;2024-02-23T14:20:33;6.20;99.90
37844;DHT22;63793;57.632;18.292;2024-02-23T14:23:00;6.10;99.90
37844;DHT22;63793;57.632;18.292;2024-02-23T14:25:27;6.10;99.90
37844;DHT22;63793;57.632;18.292;2024-02-23T14:27:54;6.10;99.90
37844;DHT22;63793;57.632;18.292;2024-02-23T14:30:22;6.00;99.90
37844;DHT22;63793;57.632;18.292;2024-02-23T14:32:49;6.00;99.90
37844;DHT22;63793;57.632;18.292;2024-02-23T14:35:17;6.00;99.90
37844;DHT22;63793;57.632;18.292;2024-02-23T14:37:44;5.90;99.90
37844;DHT22;63793;57.632;18.292;2024-02-23T14:40:11;5.90;99.90
37844;DHT22;63793;57.632;18.292;2024-02-23T14:42:38;5.80;99.90
37844;DHT22;63793;57.632;18.292;2024-02-23T14:45:07;5.80;99.90
37844;DHT22;63793;57.632;18.292;2024-02-23T14:47:36;5.80;99.90
37844;DHT22;63793;57.632;18.292;2024-02-23T14:50:12;5.70;99.90
37844;DHT22;63793;57.632;18.292;2024-02-23T14:52:39;5.70;99.90
37844;DHT22;63793;57.632;18.292;2024-02-23T14:55:07;5.70;99.90
37844;DHT22;63793;57.632;18.292;2024-02-23T14:57:33;5.70;99.90
37844;DHT22;63793;57.632;18.292;2024-02-23T15:00:00;5.60;99.90
37844;DHT22;63793;57.632;18.292;2024-02-23T15:02:28;5.50;99.90
37844;DHT22;63793;57.632;18.292;2024-02-23T15:04:55;5.50;99.90
37844;DHT22;63793;57.632;18.292;2024-02-23T15:07:22;5.40;99.90
37844;DHT22;63793;57.632;18.292;2024-02-23T15:09:49;5.40;99.90
37844;DHT22;63793;57.632;18.292;2024-02-23T15:12:16;5.30;99.90
37844;DHT22;63793;57.632;18.292;2024-02-23T15:14:43;5.30;99.90
37844;DHT22;63793;57.632;18.292;2024-02-23T15:17:10;5.30;99.90
37844;DHT22;63793;57.632;18.292;2024-02-23T15:19:37;5.40;99.90
37844;DHT22;63793;57.632;18.292;2024-02-23T15:22:04;5.50;99.90
37844;DHT22;63793;57.632;18.292;2024-02-23T15:24:34;5.50;99.90
37844;DHT22;63793;57.632;18.292;2024-02-23T15:27:01;5.40;99.90
37844;DHT22;63793;57.632;18.292;2024-02-23T15:29:28;5.30;99.90
37844;DHT22;63793;57.632;18.292;2024-02-23T15:31:55;5.30;99.90